Nieuw Amsterdam — PBWQ — position and weather

sailwx.info

Track history (hours):
 
Tides and Currents Weather Stations Pressure Air Temp Water Temp Dewpoint Dewpoint Depression Visibility Wind Speed Wind Dir Waves Ship Positions

Nieuw Amsterdam

Last reported at 2018-Jul-22 07:01 UTC. Time now 2018-Jul-22 07:06 UTC.
Position N 50°01' W 125°13'.

Length 285 m; draft 8 m.

Type: Passenger vessel. MMSI: 246648000.

Date/timePositionNaut miles runAvg speedWind from/ knotsBaromVisibWave heightAir tempDewpointWater temp
2018-Jul-22 07:01N 50°01' W 125°13'612.8
2018-Jul-22 06:30N 49°56' W 125°07'714.3
2018-Jul-22 06:01N 49°51' W 124°59'815.6
2018-Jul-22 05:30N 49°46' W 124°50'1019.2
2018-Jul-22 05:01N 49°38' W 124°41'1019.2
2018-Jul-22 04:30N 49°31' W 124°31'1018.9
2018-Jul-22 03:59N 49°26' W 124°18'919.4
2018-Jul-22 03:30N 49°23' W 124°04'1019.2
2018-Jul-22 02:59N 49°20' W 123°49'1518.0
2018-Jul-22 02:07N 49°20' W 123°26'214.2
2018-Jul-22 01:59N 49°19' W 123°23'3 5.3
2018-Jul-22 01:28N 49°19' W 123°19'0 0.2
2018-Jul-22 01:00N 49°19' W 123°19'1 2.6
2018-Jul-22 00:30N 49°19' W 123°17'612.9
2018-Jul-22 00:00N 49°18' W 123°07'1 1.9
2018-Jul-21 23:30N 49°17' W 123°07'0 0.0
2018-Jul-21 22:59N 49°17' W 123°07'0 0.0
2018-Jul-21 22:28N 49°17' W 123°07'0 0.0
2018-Jul-21 22:00N 49°17' W 123°07'0 0.0
2018-Jul-21 21:24N 49°17' W 123°07'0 0.0
2018-Jul-21 20:59N 49°17' W 123°07'0 0.0
2018-Jul-21 20:29N 49°17' W 123°07'0 0.0
2018-Jul-21 19:59N 49°17' W 123°07'0 0.0
2018-Jul-21 19:29N 49°17' W 123°07'0 0.0
2018-Jul-21 18:59N 49°17' W 123°07'0 0.0
2018-Jul-21 18:28N 49°17' W 123°07'0 0.0
2018-Jul-21 17:58N 49°17' W 123°07'0 0.0
2018-Jul-21 17:27N 49°17' W 123°07'0 0.0
2018-Jul-21 17:00N 49°17' W 123°07'0 0.0
2018-Jul-21 16:30N 49°17' W 123°07'0 0.0
2018-Jul-21 15:59N 49°17' W 123°07'0 0.0
2018-Jul-21 15:29N 49°17' W 123°07'0 0.0
2018-Jul-21 14:59N 49°17' W 123°07'0 0.0
2018-Jul-21 14:30N 49°17' W 123°07'1 1.2
2018-Jul-21 13:30N 49°18' W 123°07'5 9.2
2018-Jul-21 12:59N 49°18' W 123°15'510.2
2018-Jul-21 12:29N 49°18' W 123°23'5 9.5
2018-Jul-21 12:00N 49°19' W 123°30'6 9.4
2018-Jul-21 11:19N 49°19' W 123°39'4 8.6
2018-Jul-21 10:51N 49°20' W 123°46'4 8.6
2018-Jul-21 10:21N 49°20' W 123°52'3 8.5
2018-Jul-21 09:59N 49°21' W 123°57'4 8.9
2018-Jul-21 09:30N 49°23' W 124°03'4 8.9
2018-Jul-21 09:00N 49°24' W 124°09'5 8.9
2018-Jul-21 08:29N 49°25' W 124°16'4 8.3
2018-Jul-21 08:00N 49°27' W 124°22'4 8.3
2018-Jul-21 07:29N 49°29' W 124°28'4 8.3
2018-Jul-21 06:59N 49°32' W 124°32'4 8.4
2018-Jul-21 06:30N 49°35' W 124°36'4 8.3
2018-Jul-21 06:00N 49°38' W 124°41'4 8.0
2018-Jul-21 05:30N 49°40' W 124°45'4 8.4
2018-Jul-21 05:00N 49°44' W 124°49'5 9.2
2018-Jul-21 04:30N 49°47' W 124°54'4 9.1
2018-Jul-21 04:00N 49°50' W 124°59'5 8.9
2018-Jul-21 03:30N 49°54' W 125°04'4 8.9
2018-Jul-21 03:00N 49°57' W 125°08'510.7
2018-Jul-21 02:30N 50°01' W 125°13'510.9
2018-Jul-21 02:01N 50°06' W 125°17'5 9.8
2018-Jul-21 01:30N 50°10' W 125°22'714.3
2018-Jul-21 01:00N 50°17' W 125°24'3813.4
2018-Jul-20 22:11N 50°30' W 126°20'315.6
2018-Jul-20 22:00N 50°30' W 126°25'915.2
2018-Jul-20 21:25N 50°31' W 126°39'512.9
2018-Jul-20 21:00N 50°35' W 126°43'816.7
2018-Jul-20 20:30N 50°41' W 126°53'816.4
2018-Jul-20 19:59N 50°44' W 127°05'816.5
2018-Jul-20 19:30N 50°47' W 127°17'816.0
2018-Jul-20 19:00N 50°50' W 127°28'815.5
2018-Jul-20 18:30N 50°55' W 127°39'715.0
2018-Jul-20 18:00N 50°59' W 127°48'816.1
2018-Jul-20 17:30N 51°04' W 127°59'918.8
2018-Jul-20 17:00N 51°09' W 128°11'917.9
2018-Jul-20 16:30N 51°15' W 128°22'918.2
2018-Jul-20 16:01N 51°24' W 128°25'1019.0
2018-Jul-20 15:30N 51°33' W 128°29'1020.2
2018-Jul-20 15:00N 51°43' W 128°33'2135.2
2018-Jul-20 15:00N 51°42' W 128°30'1123.6 350 / 201023.310.8 14.9 18.8
2018-Jul-20 14:30N 51°50' W 128°44'1020.2
2018-Jul-20 14:00N 51°56' W 128°57'1019.6
2018-Jul-20 13:30N 52°02' W 129°09'1019.4
2018-Jul-20 13:00N 52°08' W 129°22'917.4
2018-Jul-20 12:30N 52°13' W 129°33'7420.1
2018-Jul-20 08:50N 53°15' W 130°38'821.9
2018-Jul-20 08:30N 53°22' W 130°44'1122.1
2018-Jul-20 08:01N 53°32' W 130°50'1122.2
2018-Jul-20 07:30N 53°43' W 130°54'1121.9
2018-Jul-20 07:00N 53°54' W 130°58'1121.6
2018-Jul-20 06:31N 54°04' W 131°01'1121.3
2018-Jul-20 06:00N 54°15' W 131°03'1020.1
2018-Jul-20 05:30N 54°25' W 131°08'1020.2
2018-Jul-20 05:00N 54°34' W 131°16'1121.2
2018-Jul-20 04:28N 54°45' W 131°12'194 8.6
2018-Jul-19 06:00N 56°36' W 135°54'10318.4 010 / 141024.010.8 14.012.219.0
2018-Jul-19 00:25N 58°18' W 136°18'818.5
2018-Jul-19 00:01N 58°20' W 136°03'612.6
2018-Jul-18 23:30N 58°26' W 135°59'4 9.0
2018-Jul-18 23:00N 58°30' W 136°03'815.8
2018-Jul-18 22:30N 58°37' W 136°05'917.1
2018-Jul-18 22:00N 58°44' W 136°16'917.2
2018-Jul-18 21:27N 58°50' W 136°30'3 0.5
2018-Jul-18 16:12N 58°48' W 136°26'316.1
2018-Jul-18 16:00N 58°46' W 136°21'816.0
2018-Jul-18 15:30N 58°41' W 136°10'714.9
2018-Jul-18 15:00N 58°34' W 136°04'815.3
2018-Jul-18 14:30N 58°27' W 136°00'1110.6
2018-Jul-18 13:31N 58°18' W 135°48'612.5
2018-Jul-18 13:00N 58°16' W 135°37'611.6
2018-Jul-18 12:30N 58°15' W 135°26'46 8.4
2018-Jul-18 07:00N 59°00' W 135°12'1212.4 160 / 181017.010.8 15.0 9.217.0
2018-Jul-18 06:00N 59°12' W 135°18'309 6.1 210 / 111016.610.8 15.0 9.217.0
2018-Jul-16 03:29N 54°26' W 131°45'1019.8
2018-Jul-16 03:00N 54°24' W 131°29'1020.3
2018-Jul-16 02:31N 54°21' W 131°12'816.7
2018-Jul-16 02:00N 54°19' W 130°59'917.8
2018-Jul-16 01:30N 54°10' W 131°00'1020.8
2018-Jul-16 01:00N 53°60' W 130°55'1120.5
2018-Jul-16 00:29N 53°50' W 130°48'1021.0
2018-Jul-16 00:01N 53°44' W 130°35'1120.6
2018-Jul-15 23:30N 53°37' W 130°21'1020.4
2018-Jul-15 23:00N 53°32' W 130°07'4821.1
2018-Jul-15 20:43N 52°53' W 129°18'1121.4
2018-Jul-15 20:13N 52°45' W 129°06'421.2
2018-Jul-15 20:00N 52°42' W 129°01'1020.7
2018-Jul-15 19:30N 52°33' W 128°53'1121.3
2018-Jul-15 19:00N 52°22' W 128°50'1121.3
2018-Jul-15 18:30N 52°12' W 128°47'1020.6
2018-Jul-15 18:00N 52°02' W 128°44'1020.7
2018-Jul-15 17:31N 51°52' W 128°39'1020.5
2018-Jul-15 17:00N 51°42' W 128°34'1020.2
2018-Jul-15 16:30N 51°32' W 128°32'1020.2
2018-Jul-15 16:00N 51°22' W 128°33'918.9
2018-Jul-15 15:30N 51°15' W 128°24'1121.7
2018-Jul-15 15:00N 51°08' W 128°10'1122.0
2018-Jul-15 14:31N 51°02' W 127°55'1122.3
2018-Jul-15 14:01N 50°55' W 127°41'1122.9
2018-Jul-15 13:31N 50°49' W 127°25'1121.7
2018-Jul-15 13:01N 50°45' W 127°10'4234.6
2018-Jul-15 13:00N 50°42' W 127°06'816.2 330 / 41021.810.8 12.2 14.6
2018-Jul-15 12:30N 50°41' W 126°54'1019.7
2018-Jul-15 11:59N 50°34' W 126°41'816.4
2018-Jul-15 11:29N 50°30' W 126°30'1120.6
2018-Jul-15 10:59N 50°29' W 126°14'1019.8
2018-Jul-15 10:28N 50°26' W 125°59'817.3
2018-Jul-15 10:01N 50°23' W 125°47'1018.4
2018-Jul-15 09:27N 50°21' W 125°31'613.9
2018-Jul-15 08:59N 50°17' W 125°24'816.2
2018-Jul-15 08:30N 50°09' W 125°21'611.8
2018-Jul-15 08:00N 50°04' W 125°16'712.4
2018-Jul-15 07:28N 49°59' W 125°11'612.4
2018-Jul-15 07:00N 49°55' W 125°04'611.9
2018-Jul-15 06:30N 49°51' W 124°58'611.6
2018-Jul-15 06:00N 49°47' W 124°51'5364.7
2018-Jul-15 06:00N 49°42' W 124°48'2 4.2 330 / 251018.310.8 20.010.919.0
2018-Jul-15 05:31N 49°42' W 124°45'611.9
2018-Jul-15 05:01N 49°38' W 124°39'611.5
2018-Jul-15 04:30N 49°33' W 124°33'713.2
2018-Jul-15 03:59N 49°28' W 124°26'1514.0
2018-Jul-15 02:54N 49°23' W 124°04'1512.8
2018-Jul-15 01:44N 49°20' W 123°42'312.8
2018-Jul-15 01:28N 49°20' W 123°36'613.5
2018-Jul-15 01:00N 49°19' W 123°27'713.3
2018-Jul-15 00:30N 49°19' W 123°17'611.6
2018-Jul-15 00:00N 49°19' W 123°08'2 3.2
2018-Jul-14 23:30N 49°17' W 123°07'0 0.0
2018-Jul-14 23:00N 49°17' W 123°07'0 0.0
2018-Jul-14 22:30N 49°17' W 123°07'0 0.0
2018-Jul-14 22:00N 49°17' W 123°07'0 0.0
2018-Jul-14 21:30N 49°17' W 123°07'0 0.0
2018-Jul-14 20:57N 49°17' W 123°07'0 0.0
2018-Jul-14 20:27N 49°17' W 123°07'0 0.0
2018-Jul-14 19:59N 49°17' W 123°07'0 0.0
2018-Jul-14 19:29N 49°17' W 123°07'0 0.0
2018-Jul-14 18:59N 49°17' W 123°07'0 0.0
2018-Jul-14 18:28N 49°17' W 123°07'0 0.0
2018-Jul-14 17:58N 49°17' W 123°07'0 0.0
2018-Jul-14 17:28N 49°17' W 123°07'0 0.0
2018-Jul-14 16:58N 49°17' W 123°07'0 0.0
2018-Jul-14 16:28N 49°17' W 123°07'0 0.0
2018-Jul-14 15:58N 49°17' W 123°07'0 0.0
2018-Jul-14 15:30N 49°17' W 123°07'0 0.0
2018-Jul-14 14:59N 49°17' W 123°07'0 0.0
2018-Jul-14 14:00N 49°17' W 123°07'2 3.7
2018-Jul-14 13:30N 49°19' W 123°08'5 9.6
2018-Jul-14 13:00N 49°19' W 123°16'5 9.2
2018-Jul-14 12:30N 49°19' W 123°23'5 8.6
2018-Jul-14 11:58N 49°19' W 123°30'4 8.7
2018-Jul-14 11:29N 49°19' W 123°36'4 8.4
2018-Jul-14 11:00N 49°19' W 123°42'4 8.1
2018-Jul-14 10:28N 49°19' W 123°49'4 8.5
2018-Jul-14 09:57N 49°21' W 123°55'4 8.9
2018-Jul-14 09:30N 49°22' W 124°01'5 8.9
2018-Jul-14 08:58N 49°23' W 124°08'4 8.5
2018-Jul-14 08:30N 49°24' W 124°14'5 8.1
2018-Jul-14 07:57N 49°26' W 124°21'4 8.8
2018-Jul-14 07:30N 49°28' W 124°26'4 9.0
2018-Jul-14 07:00N 49°31' W 124°31'1106.9
2018-Jul-14 07:00N 49°30' W 124°30'511.2 310 / 141019.910.8 17.015.321.0
2018-Jul-14 06:30N 49°34' W 124°36'4 8.4
2018-Jul-14 06:00N 49°37' W 124°40'4 8.6
2018-Jul-14 05:30N 49°40' W 124°45'4 8.5
2018-Jul-14 05:00N 49°43' W 124°49'4 8.2
2018-Jul-14 04:28N 49°47' W 124°54'4 8.6
2018-Jul-14 04:00N 49°50' W 124°58'4 8.7
2018-Jul-14 03:30N 49°53' W 125°02'4 8.5
2018-Jul-14 03:00N 49°56' W 125°07'5 9.7
2018-Jul-14 02:30N 49°59' W 125°12'510.2
2018-Jul-14 02:00N 50°04' W 125°15'611.3
2018-Jul-14 01:30N 50°08' W 125°21'714.0
2018-Jul-14 01:00N 50°15' W 125°23'913.4
2018-Jul-14 00:22N 50°21' W 125°32'915.9
2018-Jul-13 23:47N 50°22' W 125°47'1516.4
2018-Jul-13 22:52N 50°28' W 126°08'717.1
2018-Jul-13 22:26N 50°30' W 126°20'817.3
2018-Jul-13 22:00N 50°30' W 126°32'1176.8
2018-Jul-13 22:00N 50°30' W 126°30'916.4 300 / 161023.310.8 17.7 16.6
2018-Jul-13 21:28N 50°34' W 126°42'917.8
2018-Jul-13 20:58N 50°41' W 126°52'920.0
2018-Jul-13 20:30N 50°44' W 127°05'815.8
2018-Jul-13 20:00N 50°47' W 127°17'815.6
2018-Jul-13 19:30N 50°50' W 127°28'815.7
2018-Jul-13 19:00N 50°54' W 127°39'714.9
2018-Jul-13 18:30N 50°58' W 127°49'917.3
2018-Jul-13 18:01N 51°04' W 127°59'1019.4
2018-Jul-13 17:30N 51°08' W 128°13'918.3
2018-Jul-13 17:00N 51°15' W 128°22'1019.1
2018-Jul-13 16:30N 51°25' W 128°26'1019.2
2018-Jul-13 16:00N 51°34' W 128°30'1019.3
2018-Jul-13 15:30N 51°43' W 128°34'918.9
2018-Jul-13 15:00N 51°50' W 128°44'2019.5
2018-Jul-13 14:00N 52°02' W 129°10'1020.2
2018-Jul-13 13:30N 52°08' W 129°23'1020.3
2018-Jul-13 13:00N 52°14' W 129°36'7219.9
2018-Jul-13 09:23N 53°15' W 130°38'819.9
2018-Jul-13 09:00N 53°22' W 130°44'1019.2
2018-Jul-13 08:30N 53°31' W 130°50'1019.5
2018-Jul-13 08:00N 53°41' W 130°53'1019.5
2018-Jul-13 07:30N 53°50' W 130°56'1019.6
2018-Jul-13 07:00N 53°60' W 130°59'1020.0
2018-Jul-13 06:30N 54°10' W 131°02'1020.8
2018-Jul-13 06:01N 54°20' W 131°05'1020.3
2018-Jul-13 05:30N 54°28' W 131°15'917.9
2018-Jul-13 04:59N 54°38' W 131°17'1118.8
2018-Jul-13 04:25N 54°48' W 131°11'75 5.2
2018-Jul-12 14:00N 55°48' W 132°30'   200 / 21025.7 5.4 11.2 16.3
Track history (hours):
 
Tides and Currents Weather Stations Pressure Air Temp Water Temp Dewpoint Dewpoint Depression Visibility Wind Speed Wind Dir Waves Ship Positions

Nieuw Amsterdam

Last reported at 2018-Jul-22 07:01 UTC. Time now 2018-Jul-22 07:06 UTC.
Position N 50°01' W 125°13'.

Length 285 m; draft 8 m.

Type: Passenger vessel. MMSI: 246648000.

Date/timePositionNaut miles runAvg speedWind from/ knotsBaromVisibWave heightAir tempDewpointWater temp
2018-Jul-22 07:01N 50°01' W 125°13'612.8
2018-Jul-22 06:30N 49°56' W 125°07'714.3
2018-Jul-22 06:01N 49°51' W 124°59'815.6
2018-Jul-22 05:30N 49°46' W 124°50'1019.2
2018-Jul-22 05:01N 49°38' W 124°41'1019.2
2018-Jul-22 04:30N 49°31' W 124°31'1018.9
2018-Jul-22 03:59N 49°26' W 124°18'919.4
2018-Jul-22 03:30N 49°23' W 124°04'1019.2
2018-Jul-22 02:59N 49°20' W 123°49'1518.0
2018-Jul-22 02:07N 49°20' W 123°26'214.2
2018-Jul-22 01:59N 49°19' W 123°23'3 5.3
2018-Jul-22 01:28N 49°19' W 123°19'0 0.2
2018-Jul-22 01:00N 49°19' W 123°19'1 2.6
2018-Jul-22 00:30N 49°19' W 123°17'612.9
2018-Jul-22 00:00N 49°18' W 123°07'1 1.9
2018-Jul-21 23:30N 49°17' W 123°07'0 0.0
2018-Jul-21 22:59N 49°17' W 123°07'0 0.0
2018-Jul-21 22:28N 49°17' W 123°07'0 0.0
2018-Jul-21 22:00N 49°17' W 123°07'0 0.0
2018-Jul-21 21:24N 49°17' W 123°07'0 0.0
2018-Jul-21 20:59N 49°17' W 123°07'0 0.0
2018-Jul-21 20:29N 49°17' W 123°07'0 0.0
2018-Jul-21 19:59N 49°17' W 123°07'0 0.0
2018-Jul-21 19:29N 49°17' W 123°07'0 0.0
2018-Jul-21 18:59N 49°17' W 123°07'0 0.0
2018-Jul-21 18:28N 49°17' W 123°07'0 0.0
2018-Jul-21 17:58N 49°17' W 123°07'0 0.0
2018-Jul-21 17:27N 49°17' W 123°07'0 0.0
2018-Jul-21 17:00N 49°17' W 123°07'0 0.0
2018-Jul-21 16:30N 49°17' W 123°07'0 0.0
2018-Jul-21 15:59N 49°17' W 123°07'0 0.0
2018-Jul-21 15:29N 49°17' W 123°07'0 0.0
2018-Jul-21 14:59N 49°17' W 123°07'0 0.0
2018-Jul-21 14:30N 49°17' W 123°07'1 1.2
2018-Jul-21 13:30N 49°18' W 123°07'5 9.2
2018-Jul-21 12:59N 49°18' W 123°15'510.2
2018-Jul-21 12:29N 49°18' W 123°23'5 9.5
2018-Jul-21 12:00N 49°19' W 123°30'6 9.4
2018-Jul-21 11:19N 49°19' W 123°39'4 8.6
2018-Jul-21 10:51N 49°20' W 123°46'4 8.6
2018-Jul-21 10:21N 49°20' W 123°52'3 8.5
2018-Jul-21 09:59N 49°21' W 123°57'4 8.9
2018-Jul-21 09:30N 49°23' W 124°03'4 8.9
2018-Jul-21 09:00N 49°24' W 124°09'5 8.9
2018-Jul-21 08:29N 49°25' W 124°16'4 8.3
2018-Jul-21 08:00N 49°27' W 124°22'4 8.3
2018-Jul-21 07:29N 49°29' W 124°28'4 8.3
2018-Jul-21 06:59N 49°32' W 124°32'4 8.4
2018-Jul-21 06:30N 49°35' W 124°36'4 8.3
2018-Jul-21 06:00N 49°38' W 124°41'4 8.0
2018-Jul-21 05:30N 49°40' W 124°45'4 8.4
2018-Jul-21 05:00N 49°44' W 124°49'5 9.2
2018-Jul-21 04:30N 49°47' W 124°54'4 9.1
2018-Jul-21 04:00N 49°50' W 124°59'5 8.9
2018-Jul-21 03:30N 49°54' W 125°04'4 8.9
2018-Jul-21 03:00N 49°57' W 125°08'510.7
2018-Jul-21 02:30N 50°01' W 125°13'510.9
2018-Jul-21 02:01N 50°06' W 125°17'5 9.8
2018-Jul-21 01:30N 50°10' W 125°22'714.3
2018-Jul-21 01:00N 50°17' W 125°24'3813.4
2018-Jul-20 22:11N 50°30' W 126°20'315.6
2018-Jul-20 22:00N 50°30' W 126°25'915.2
2018-Jul-20 21:25N 50°31' W 126°39'512.9
2018-Jul-20 21:00N 50°35' W 126°43'816.7
2018-Jul-20 20:30N 50°41' W 126°53'816.4
2018-Jul-20 19:59N 50°44' W 127°05'816.5
2018-Jul-20 19:30N 50°47' W 127°17'816.0
2018-Jul-20 19:00N 50°50' W 127°28'815.5
2018-Jul-20 18:30N 50°55' W 127°39'715.0
2018-Jul-20 18:00N 50°59' W 127°48'816.1
2018-Jul-20 17:30N 51°04' W 127°59'918.8
2018-Jul-20 17:00N 51°09' W 128°11'917.9
2018-Jul-20 16:30N 51°15' W 128°22'918.2
2018-Jul-20 16:01N 51°24' W 128°25'1019.0
2018-Jul-20 15:30N 51°33' W 128°29'1020.2
2018-Jul-20 15:00N 51°43' W 128°33'2135.2
2018-Jul-20 15:00N 51°42' W 128°30'1123.6 350 / 201023.310.8 14.9 18.8
2018-Jul-20 14:30N 51°50' W 128°44'1020.2
2018-Jul-20 14:00N 51°56' W 128°57'1019.6
2018-Jul-20 13:30N 52°02' W 129°09'1019.4
2018-Jul-20 13:00N 52°08' W 129°22'917.4
2018-Jul-20 12:30N 52°13' W 129°33'7420.1
2018-Jul-20 08:50N 53°15' W 130°38'821.9
2018-Jul-20 08:30N 53°22' W 130°44'1122.1
2018-Jul-20 08:01N 53°32' W 130°50'1122.2
2018-Jul-20 07:30N 53°43' W 130°54'1121.9
2018-Jul-20 07:00N 53°54' W 130°58'1121.6
2018-Jul-20 06:31N 54°04' W 131°01'1121.3
2018-Jul-20 06:00N 54°15' W 131°03'1020.1
2018-Jul-20 05:30N 54°25' W 131°08'1020.2
2018-Jul-20 05:00N 54°34' W 131°16'1121.2
2018-Jul-20 04:28N 54°45' W 131°12'194 8.6
2018-Jul-19 06:00N 56°36' W 135°54'10318.4 010 / 141024.010.8 14.012.219.0
2018-Jul-19 00:25N 58°18' W 136°18'818.5
2018-Jul-19 00:01N 58°20' W 136°03'612.6
2018-Jul-18 23:30N 58°26' W 135°59'4 9.0
2018-Jul-18 23:00N 58°30' W 136°03'815.8
2018-Jul-18 22:30N 58°37' W 136°05'917.1
2018-Jul-18 22:00N 58°44' W 136°16'917.2
2018-Jul-18 21:27N 58°50' W 136°30'3 0.5
2018-Jul-18 16:12N 58°48' W 136°26'316.1
2018-Jul-18 16:00N 58°46' W 136°21'816.0
2018-Jul-18 15:30N 58°41' W 136°10'714.9
2018-Jul-18 15:00N 58°34' W 136°04'815.3
2018-Jul-18 14:30N 58°27' W 136°00'1110.6
2018-Jul-18 13:31N 58°18' W 135°48'612.5
2018-Jul-18 13:00N 58°16' W 135°37'611.6
2018-Jul-18 12:30N 58°15' W 135°26'46 8.4
2018-Jul-18 07:00N 59°00' W 135°12'1212.4 160 / 181017.010.8 15.0 9.217.0
2018-Jul-18 06:00N 59°12' W 135°18'309 6.1 210 / 111016.610.8 15.0 9.217.0
2018-Jul-16 03:29N 54°26' W 131°45'1019.8
2018-Jul-16 03:00N 54°24' W 131°29'1020.3
2018-Jul-16 02:31N 54°21' W 131°12'816.7
2018-Jul-16 02:00N 54°19' W 130°59'917.8
2018-Jul-16 01:30N 54°10' W 131°00'1020.8
2018-Jul-16 01:00N 53°60' W 130°55'1120.5
2018-Jul-16 00:29N 53°50' W 130°48'1021.0
2018-Jul-16 00:01N 53°44' W 130°35'1120.6
2018-Jul-15 23:30N 53°37' W 130°21'1020.4
2018-Jul-15 23:00N 53°32' W 130°07'4821.1
2018-Jul-15 20:43N 52°53' W 129°18'1121.4
2018-Jul-15 20:13N 52°45' W 129°06'421.2
2018-Jul-15 20:00N 52°42' W 129°01'1020.7
2018-Jul-15 19:30N 52°33' W 128°53'1121.3
2018-Jul-15 19:00N 52°22' W 128°50'1121.3
2018-Jul-15 18:30N 52°12' W 128°47'1020.6
2018-Jul-15 18:00N 52°02' W 128°44'1020.7
2018-Jul-15 17:31N 51°52' W 128°39'1020.5
2018-Jul-15 17:00N 51°42' W 128°34'1020.2
2018-Jul-15 16:30N 51°32' W 128°32'1020.2
2018-Jul-15 16:00N 51°22' W 128°33'918.9
2018-Jul-15 15:30N 51°15' W 128°24'1121.7
2018-Jul-15 15:00N 51°08' W 128°10'1122.0
2018-Jul-15 14:31N 51°02' W 127°55'1122.3
2018-Jul-15 14:01N 50°55' W 127°41'1122.9
2018-Jul-15 13:31N 50°49' W 127°25'1121.7
2018-Jul-15 13:01N 50°45' W 127°10'4234.6
2018-Jul-15 13:00N 50°42' W 127°06'816.2 330 / 41021.810.8 12.2 14.6
2018-Jul-15 12:30N 50°41' W 126°54'1019.7
2018-Jul-15 11:59N 50°34' W 126°41'816.4
2018-Jul-15 11:29N 50°30' W 126°30'1120.6
2018-Jul-15 10:59N 50°29' W 126°14'1019.8
2018-Jul-15 10:28N 50°26' W 125°59'817.3
2018-Jul-15 10:01N 50°23' W 125°47'1018.4
2018-Jul-15 09:27N 50°21' W 125°31'613.9
2018-Jul-15 08:59N 50°17' W 125°24'816.2
2018-Jul-15 08:30N 50°09' W 125°21'611.8
2018-Jul-15 08:00N 50°04' W 125°16'712.4
2018-Jul-15 07:28N 49°59' W 125°11'612.4
2018-Jul-15 07:00N 49°55' W 125°04'611.9
2018-Jul-15 06:30N 49°51' W 124°58'611.6
2018-Jul-15 06:00N 49°47' W 124°51'5364.7
2018-Jul-15 06:00N 49°42' W 124°48'2 4.2 330 / 251018.310.8 20.010.919.0
2018-Jul-15 05:31N 49°42' W 124°45'611.9
2018-Jul-15 05:01N 49°38' W 124°39'611.5
2018-Jul-15 04:30N 49°33' W 124°33'713.2
2018-Jul-15 03:59N 49°28' W 124°26'1514.0
2018-Jul-15 02:54N 49°23' W 124°04'1512.8
2018-Jul-15 01:44N 49°20' W 123°42'312.8
2018-Jul-15 01:28N 49°20' W 123°36'613.5
2018-Jul-15 01:00N 49°19' W 123°27'713.3
2018-Jul-15 00:30N 49°19' W 123°17'611.6
2018-Jul-15 00:00N 49°19' W 123°08'2 3.2
2018-Jul-14 23:30N 49°17' W 123°07'0 0.0
2018-Jul-14 23:00N 49°17' W 123°07'0 0.0
2018-Jul-14 22:30N 49°17' W 123°07'0 0.0
2018-Jul-14 22:00N 49°17' W 123°07'0 0.0
2018-Jul-14 21:30N 49°17' W 123°07'0 0.0
2018-Jul-14 20:57N 49°17' W 123°07'0 0.0
2018-Jul-14 20:27N 49°17' W 123°07'0 0.0
2018-Jul-14 19:59N 49°17' W 123°07'0 0.0
2018-Jul-14 19:29N 49°17' W 123°07'0 0.0
2018-Jul-14 18:59N 49°17' W 123°07'0 0.0
2018-Jul-14 18:28N 49°17' W 123°07'0 0.0
2018-Jul-14 17:58N 49°17' W 123°07'0 0.0
2018-Jul-14 17:28N 49°17' W 123°07'0 0.0
2018-Jul-14 16:58N 49°17' W 123°07'0 0.0
2018-Jul-14 16:28N 49°17' W 123°07'0 0.0
2018-Jul-14 15:58N 49°17' W 123°07'0 0.0
2018-Jul-14 15:30N 49°17' W 123°07'0 0.0
2018-Jul-14 14:59N 49°17' W 123°07'0 0.0
2018-Jul-14 14:00N 49°17' W 123°07'2 3.7
2018-Jul-14 13:30N 49°19' W 123°08'5 9.6
2018-Jul-14 13:00N 49°19' W 123°16'5 9.2
2018-Jul-14 12:30N 49°19' W 123°23'5 8.6
2018-Jul-14 11:58N 49°19' W 123°30'4 8.7
2018-Jul-14 11:29N 49°19' W 123°36'4 8.4
2018-Jul-14 11:00N 49°19' W 123°42'4 8.1
2018-Jul-14 10:28N 49°19' W 123°49'4 8.5
2018-Jul-14 09:57N 49°21' W 123°55'4 8.9
2018-Jul-14 09:30N 49°22' W 124°01'5 8.9
2018-Jul-14 08:58N 49°23' W 124°08'4 8.5
2018-Jul-14 08:30N 49°24' W 124°14'5 8.1
2018-Jul-14 07:57N 49°26' W 124°21'4 8.8
2018-Jul-14 07:30N 49°28' W 124°26'4 9.0
2018-Jul-14 07:00N 49°31' W 124°31'1106.9
2018-Jul-14 07:00N 49°30' W 124°30'511.2 310 / 141019.910.8 17.015.321.0
2018-Jul-14 06:30N 49°34' W 124°36'4 8.4
2018-Jul-14 06:00N 49°37' W 124°40'4 8.6
2018-Jul-14 05:30N 49°40' W 124°45'4 8.5
2018-Jul-14 05:00N 49°43' W 124°49'4 8.2
2018-Jul-14 04:28N 49°47' W 124°54'4 8.6
2018-Jul-14 04:00N 49°50' W 124°58'4 8.7
2018-Jul-14 03:30N 49°53' W 125°02'4 8.5
2018-Jul-14 03:00N 49°56' W 125°07'5 9.7
2018-Jul-14 02:30N 49°59' W 125°12'510.2
2018-Jul-14 02:00N 50°04' W 125°15'611.3
2018-Jul-14 01:30N 50°08' W 125°21'714.0
2018-Jul-14 01:00N 50°15' W 125°23'913.4
2018-Jul-14 00:22N 50°21' W 125°32'915.9
2018-Jul-13 23:47N 50°22' W 125°47'1516.4
2018-Jul-13 22:52N 50°28' W 126°08'717.1
2018-Jul-13 22:26N 50°30' W 126°20'817.3
2018-Jul-13 22:00N 50°30' W 126°32'1176.8
2018-Jul-13 22:00N 50°30' W 126°30'916.4 300 / 161023.310.8 17.7 16.6
2018-Jul-13 21:28N 50°34' W 126°42'917.8
2018-Jul-13 20:58N 50°41' W 126°52'920.0
2018-Jul-13 20:30N 50°44' W 127°05'815.8
2018-Jul-13 20:00N 50°47' W 127°17'815.6
2018-Jul-13 19:30N 50°50' W 127°28'815.7
2018-Jul-13 19:00N 50°54' W 127°39'714.9
2018-Jul-13 18:30N 50°58' W 127°49'917.3
2018-Jul-13 18:01N 51°04' W 127°59'1019.4
2018-Jul-13 17:30N 51°08' W 128°13'918.3
2018-Jul-13 17:00N 51°15' W 128°22'1019.1
2018-Jul-13 16:30N 51°25' W 128°26'1019.2
2018-Jul-13 16:00N 51°34' W 128°30'1019.3
2018-Jul-13 15:30N 51°43' W 128°34'918.9
2018-Jul-13 15:00N 51°50' W 128°44'2019.5
2018-Jul-13 14:00N 52°02' W 129°10'1020.2
2018-Jul-13 13:30N 52°08' W 129°23'1020.3
2018-Jul-13 13:00N 52°14' W 129°36'7219.9
2018-Jul-13 09:23N 53°15' W 130°38'819.9
2018-Jul-13 09:00N 53°22' W 130°44'1019.2
2018-Jul-13 08:30N 53°31' W 130°50'1019.5
2018-Jul-13 08:00N 53°41' W 130°53'1019.5
2018-Jul-13 07:30N 53°50' W 130°56'1019.6
2018-Jul-13 07:00N 53°60' W 130°59'1020.0
2018-Jul-13 06:30N 54°10' W 131°02'1020.8
2018-Jul-13 06:01N 54°20' W 131°05'1020.3
2018-Jul-13 05:30N 54°28' W 131°15'917.9
2018-Jul-13 04:59N 54°38' W 131°17'1118.8
2018-Jul-13 04:25N 54°48' W 131°11'75 5.2
2018-Jul-12 14:00N 55°48' W 132°30'   200 / 21025.7 5.4 11.2 16.3

Dump ship's entire track history